Time;durP1;ratioP1;P1;durP2;ratioP2;P2;SDS_P1;SDS_P2;PMS_P1;PMS_P2;Temp;Humidity;BMP_temperature;BMP_pressure;BME280_temperature;BME280_humidity;BME280_pressure;Samples;Min_cycle;Max_cycle;Signal;HPM_P1;HPM_P2
2023/04/18 00:01:33;;;;;;;;;58.00;46.75;;;;;12.95;65.00;101902.78;4981720;28;45258;-59
2023/04/18 00:04:00;;;;;;;;;51.00;42.00;;;;;12.97;64.60;101906.28;4980140;28;45366;-59
2023/04/18 00:06:26;;;;;;;;;58.50;49.00;;;;;12.82;64.71;101880.72;4980118;28;45933;-59
2023/04/18 00:08:51;;;;;;;;;61.50;48.00;;;;;12.93;64.83;101897.44;4979916;28;45576;-59
2023/04/18 00:11:16;;;;;;;;;58.50;48.00;;;;;12.83;64.61;101885.19;4971896;28;45394;-59
2023/04/18 00:13:42;;;;;;;;;60.00;48.25;;;;;12.90;64.98;101896.63;4976032;28;45550;-59
2023/04/18 00:16:07;;;;;;;;;63.00;50.00;;;;;12.77;65.00;101871.91;4981138;28;45507;-59
2023/04/18 00:18:33;;;;;;;;;57.50;46.50;;;;;12.89;65.08;101898.41;4965108;28;45302;-59
2023/04/18 00:20:58;;;;;;;;;57.25;47.75;;;;;12.86;64.82;101886.91;4966422;28;45409;-59
2023/04/18 00:23:26;;;;;;;;;62.00;46.75;;;;;12.83;65.14;101893.22;4964999;28;45421;-59
2023/04/18 00:25:52;;;;;;;;;56.25;46.50;;;;;12.79;64.97;101881.66;4961590;28;45386;-59
2023/04/18 00:28:17;;;;;;;;;60.00;47.25;;;;;12.82;64.81;101893.25;4977589;28;45318;-59
2023/04/18 00:30:44;;;;;;;;;62.00;51.00;;;;;12.69;64.62;101865.84;4981357;28;45312;-59
2023/04/18 00:33:09;;;;;;;;;62.00;49.25;;;;;12.74;65.01;101882.69;4979777;28;45436;-59
2023/04/18 00:35:36;;;;;;;;;58.50;48.25;;;;;12.70;65.04;101881.03;4983736;28;46323;-59
2023/04/18 00:38:02;;;;;;;;;63.75;51.25;;;;;12.67;64.92;101881.09;4982701;28;46085;-59
2023/04/18 00:40:27;;;;;;;;;62.00;49.75;;;;;12.70;65.38;101883.72;4981049;28;45419;-59
2023/04/18 00:42:52;;;;;;;;;62.00;49.75;;;;;12.57;65.08;101873.25;4979874;28;45552;-59
2023/04/18 00:45:18;;;;;;;;;59.25;48.00;;;;;12.59;65.08;101876.78;4982462;28;45652;-59
2023/04/18 00:47:43;;;;;;;;;62.25;49.50;;;;;12.65;64.99;101877.56;4984124;28;45353;-59
2023/04/18 00:50:10;;;;;;;;;67.00;52.75;;;;;12.69;65.20;101884.63;4979750;28;45404;-58
2023/04/18 00:52:35;;;;;;;;;60.75;48.75;;;;;12.57;65.13;101861.66;4980686;28;45515;-59
2023/04/18 00:55:05;;;;;;;;;63.75;49.75;;;;;12.61;65.29;101876.75;4980196;28;45497;-59
2023/04/18 00:57:32;;;;;;;;;58.25;48.25;;;;;12.58;65.36;101869.66;4980510;28;46135;-59
2023/04/18 00:59:59;;;;;;;;;63.75;48.75;;;;;12.57;65.19;101864.34;4980997;28;45703;-59
2023/04/18 01:02:29;;;;;;;;;59.75;48.25;;;;;12.60;65.34;101864.28;4981935;28;45594;-59
2023/04/18 01:04:55;;;;;;;;;57.25;48.00;;;;;12.45;65.29;101841.41;4971359;28;45988;-59
2023/04/18 01:07:20;;;;;;;;;63.25;50.50;;;;;12.55;65.18;101850.13;4979116;28;45505;-59
2023/04/18 01:09:46;;;;;;;;;61.75;47.00;;;;;12.63;65.07;101871.34;4962794;28;45297;-59
2023/04/18 01:12:12;;;;;;;;;59.00;48.25;;;;;12.55;64.89;101851.00;4966228;28;45421;-59
2023/04/18 01:14:41;;;;;;;;;66.75;51.50;;;;;12.63;65.21;101866.00;4961888;28;47014;-59
2023/04/18 01:17:09;;;;;;;;;64.25;50.50;;;;;12.56;65.07;101843.81;4980373;28;45401;-59
2023/04/18 01:19:36;;;;;;;;;64.50;50.50;;;;;12.59;65.21;101855.34;4980606;28;45568;-59
2023/04/18 01:22:02;;;;;;;;;64.75;51.75;;;;;12.40;65.22;101821.88;4980225;28;45435;-59
2023/04/18 01:24:30;;;;;;;;;58.75;47.75;;;;;12.58;65.25;101848.25;4962497;28;48186;-59
2023/04/18 01:26:56;;;;;;;;;66.25;51.50;;;;;12.50;65.13;101836.81;4979167;28;45320;-59
2023/04/18 01:29:22;;;;;;;;;66.00;48.25;;;;;12.64;65.16;101849.00;4979528;28;45339;-59
2023/04/18 01:31:47;;;;;;;;;58.00;48.25;;;;;12.53;65.45;101831.41;4980155;28;45493;-59
2023/04/18 01:34:13;;;;;;;;;62.25;49.75;;;;;12.56;65.07;101839.38;4979149;28;45355;-59
2023/04/18 01:36:38;;;;;;;;;68.00;52.50;;;;;12.58;65.13;101833.97;4967821;28;45374;-59
2023/04/18 01:39:04;;;;;;;;;64.00;52.50;;;;;12.56;65.04;101833.09;4946429;28;45347;-59
2023/04/18 01:41:31;;;;;;;;;69.25;54.25;;;;;12.42;65.24;101810.22;4979404;28;45326;-59
2023/04/18 01:43:57;;;;;;;;;64.00;52.25;;;;;12.65;65.32;101853.47;4979876;28;46152;-59
2023/04/18 01:46:22;;;;;;;;;65.75;53.75;;;;;12.63;65.08;101847.25;4984445;28;45398;-59
2023/04/18 01:48:48;;;;;;;;;60.25;49.00;;;;;12.56;65.33;101833.09;4980121;28;45330;-59
2023/04/18 01:51:13;;;;;;;;;68.00;52.50;;;;;12.59;65.33;101844.63;4978332;28;45477;-59
2023/04/18 01:53:38;;;;;;;;;63.75;50.75;;;;;12.59;65.30;101851.78;4979671;28;45409;-59
2023/04/18 01:56:04;;;;;;;;;72.50;54.75;;;;;12.47;65.43;101826.19;4962302;28;45414;-59
2023/04/18 01:58:29;;;;;;;;;60.25;48.00;;;;;12.44;65.35;101831.59;4978560;28;45321;-59
2023/04/18 02:00:57;;;;;;;;;64.00;51.75;;;;;12.48;65.51;101838.66;4962237;28;45875;-59
2023/04/18 02:03:23;;;;;;;;;64.50;51.00;;;;;12.41;65.49;101827.22;4978959;28;47313;-59
2023/04/18 02:05:49;;;;;;;;;68.25;54.75;;;;;12.45;65.58;101829.81;4979817;28;45317;-59
2023/04/18 02:08:14;;;;;;;;;67.00;51.75;;;;;12.40;65.40;101820.06;4961295;28;45352;-59
2023/04/18 02:10:40;;;;;;;;;66.50;52.50;;;;;12.47;65.27;101836.88;4973567;28;45697;-59
2023/04/18 02:13:06;;;;;;;;;69.25;55.75;;;;;12.47;65.21;101826.19;4969507;28;47703;-59
2023/04/18 02:15:32;;;;;;;;;71.25;56.50;;;;;12.41;65.41;101828.97;4977992;28;45532;-59
2023/04/18 02:17:58;;;;;;;;;68.50;51.50;;;;;12.45;65.51;101830.69;4968614;28;45543;-59
2023/04/18 02:20:25;;;;;;;;;66.50;53.25;;;;;12.37;65.57;101813.91;4942552;28;45491;-59
2023/04/18 02:22:50;;;;;;;;;66.50;52.50;;;;;12.44;65.75;101822.69;4958443;28;47333;-59
2023/04/18 02:25:15;;;;;;;;;66.00;51.25;;;;;12.26;65.33;101794.53;4959855;28;45377;-59
2023/04/18 02:27:41;;;;;;;;;66.75;51.75;;;;;12.44;65.66;101830.72;4960040;28;45370;-59
2023/04/18 02:30:07;;;;;;;;;71.00;55.25;;;;;12.37;65.64;101819.28;4958416;28;45538;-59
2023/04/18 02:32:32;;;;;;;;;69.00;54.50;;;;;12.34;65.52;101812.19;4961785;28;45565;-59
2023/04/18 02:34:57;;;;;;;;;62.25;50.25;;;;;12.19;65.42;101791.13;4961108;28;45431;-59
2023/04/18 02:37:23;;;;;;;;;61.75;51.25;;;;;12.37;65.50;101827.31;4982757;28;45290;-59
2023/04/18 02:39:48;;;;;;;;;68.75;54.25;;;;;12.38;65.63;101826.41;4977532;28;45345;-59
2023/04/18 02:42:13;;;;;;;;;68.00;52.25;;;;;12.38;65.32;101821.03;4979010;28;45401;-59
2023/04/18 02:44:39;;;;;;;;;69.50;55.25;;;;;12.27;65.28;101807.00;4973419;28;45401;-59
2023/04/18 02:47:04;;;;;;;;;62.75;51.00;;;;;12.21;65.79;101802.66;4980492;28;45684;-59
2023/04/18 02:49:29;;;;;;;;;63.50;50.00;;;;;12.28;65.53;101814.09;4961463;28;45520;-59
2023/04/18 02:51:55;;;;;;;;;68.25;54.50;;;;;12.17;65.84;101807.19;4977855;28;46433;-59
2023/04/18 02:54:20;;;;;;;;;67.25;52.50;;;;;12.15;65.39;101805.50;4978762;28;45384;-59
2023/04/18 02:56:46;;;;;;;;;62.25;51.25;;;;;12.14;65.57;101798.38;4979068;28;45364;-59
2023/04/18 02:59:11;;;;;;;;;69.00;55.00;;;;;12.12;65.29;101809.09;4978835;28;45561;-59
2023/04/18 03:01:36;;;;;;;;;65.75;52.25;;;;;11.99;65.49;101799.56;4978903;28;45624;-59
2023/04/18 03:04:02;;;;;;;;;64.00;51.75;;;;;12.05;65.39;101821.72;4973653;28;45444;-59
2023/04/18 03:06:27;;;;;;;;;67.00;52.00;;;;;11.99;65.65;101810.28;4958352;28;45369;-59
2023/04/18 03:08:54;;;;;;;;;68.75;53.50;;;;;12.00;65.84;101812.94;4959103;28;45350;-59
2023/04/18 03:11:20;;;;;;;;;70.75;55.75;;;;;11.97;65.75;101815.66;4968644;28;46561;-59
2023/04/18 03:13:45;;;;;;;;;70.50;56.25;;;;;11.76;65.84;101784.88;4977101;28;45498;-59
2023/04/18 03:16:10;;;;;;;;;71.00;56.25;;;;;11.95;65.69;101804.13;4978457;28;51134;-59
2023/04/18 03:18:36;;;;;;;;;71.50;55.50;;;;;11.97;65.80;101812.13;4979812;28;45284;-59
2023/04/18 03:21:01;;;;;;;;;69.25;54.25;;;;;12.04;66.02;101816.41;4982123;28;46943;-59
2023/04/18 03:23:26;;;;;;;;;71.25;53.50;;;;;12.02;65.34;101807.53;4982000;28;45335;-58
2023/04/18 03:25:52;;;;;;;;;68.50;55.25;;;;;12.00;65.65;101810.25;4982515;28;45321;-59
2023/04/18 03:28:17;;;;;;;;;69.50;54.75;;;;;11.99;65.71;101810.28;4964237;28;45501;-59
2023/04/18 03:30:43;;;;;;;;;74.50;55.75;;;;;12.05;65.37;101811.03;4982140;28;46179;-59
2023/04/18 03:33:08;;;;;;;;;70.50;53.50;;;;;12.07;65.32;101815.47;4980892;28;45278;-58
2023/04/18 03:35:33;;;;;;;;;66.75;54.00;;;;;12.03;65.26;101810.19;4983329;28;45427;-59
2023/04/18 03:37:59;;;;;;;;;64.50;50.75;;;;;12.03;65.21;101801.28;4982746;28;45384;-59
2023/04/18 03:40:24;;;;;;;;;72.50;55.00;;;;;11.98;64.95;101784.47;4981497;28;46073;-59
2023/04/18 03:42:50;;;;;;;;;65.50;51.00;;;;;12.03;65.03;101806.63;4964102;28;45387;-59
2023/04/18 03:45:15;;;;;;;;;70.50;53.25;;;;;11.86;65.49;101790.88;4983285;28;45391;-59
2023/04/18 03:47:41;;;;;;;;;60.75;47.75;;;;;12.00;65.47;101812.06;4966830;28;45600;-59
2023/04/18 03:50:06;;;;;;;;;70.25;54.75;;;;;11.92;65.28;101790.78;4981773;28;45701;-59
2023/04/18 03:52:32;;;;;;;;;64.50;50.25;;;;;12.00;65.35;101804.91;4981606;28;45521;-59
2023/04/18 03:54:57;;;;;;;;;63.50;51.50;;;;;11.97;65.08;101788.91;4981901;28;45700;-59
2023/04/18 03:57:22;;;;;;;;;72.75;55.50;;;;;11.93;65.43;101794.34;4963807;28;45366;-59
2023/04/18 03:59:48;;;;;;;;;70.50;53.25;;;;;11.83;65.35;101778.47;4981704;28;45484;-59
2023/04/18 04:02:13;;;;;;;;;62.75;51.25;;;;;12.01;65.35;101811.13;4963316;28;45393;-59
2023/04/18 04:04:38;;;;;;;;;67.25;51.25;;;;;12.02;65.54;101799.50;4981706;28;45419;-59
2023/04/18 04:07:04;;;;;;;;;74.25;56.25;;;;;11.94;65.61;101780.06;4980770;28;47077;-59
2023/04/18 04:09:29;;;;;;;;;67.75;53.00;;;;;11.88;65.33;101781.06;4979735;28;45579;-59
2023/04/18 04:11:55;;;;;;;;;66.25;51.75;;;;;11.86;65.43;101772.16;4958021;28;45385;-59
2023/04/18 04:14:21;;;;;;;;;68.25;55.50;;;;;12.01;65.29;101792.38;4981011;28;45525;-59
2023/04/18 04:16:47;;;;;;;;;69.75;54.75;;;;;12.00;65.71;101793.31;4981351;28;45363;-59
2023/04/18 04:19:13;;;;;;;;;67.50;54.00;;;;;11.96;65.60;101794.28;4981367;28;45467;-59
2023/04/18 04:21:39;;;;;;;;;65.00;52.50;;;;;11.96;65.68;101787.16;4981322;28;45317;-59
2023/04/18 04:24:05;;;;;;;;;64.25;50.50;;;;;11.87;65.72;101780.16;4981301;28;45380;-59
2023/04/18 04:26:31;;;;;;;;;66.25;50.25;;;;;11.84;65.42;101780.25;4963576;28;45456;-59
2023/04/18 04:28:56;;;;;;;;;66.50;51.25;;;;;11.93;65.53;101794.34;4980874;28;46719;-59
2023/04/18 04:31:22;;;;;;;;;74.00;56.75;;;;;11.93;65.84;101797.03;4980457;28;45509;-59
2023/04/18 04:33:47;;;;;;;;;69.75;54.25;;;;;11.74;65.61;101765.28;4979189;28;45449;-59
2023/04/18 04:36:18;;;;;;;;;68.75;54.00;;;;;11.86;65.81;101788.22;4984765;28;45502;-59
2023/04/18 04:38:43;;;;;;;;;67.75;53.50;;;;;11.85;65.91;101787.34;4980849;28;46400;-59
2023/04/18 04:41:09;;;;;;;;;68.00;53.25;;;;;11.74;65.99;101770.63;4980446;28;45337;-59
2023/04/18 04:43:35;;;;;;;;;64.50;51.50;;;;;11.68;65.71;101768.97;4979763;28;45383;-59
2023/04/18 04:46:02;;;;;;;;;70.25;54.25;;;;;11.74;65.93;101781.31;4975556;28;45718;-59
2023/04/18 04:48:28;;;;;;;;;69.50;56.25;;;;;11.79;66.18;101797.28;4980963;28;45439;-59
2023/04/18 04:50:58;;;;;;;;;70.75;54.50;;;;;11.76;66.28;101792.91;4962387;28;45716;-59
2023/04/18 04:53:25;;;;;;;;;69.50;56.00;;;;;11.66;66.39;101781.50;4979371;28;45409;-59
2023/04/18 04:55:51;;;;;;;;;69.75;55.50;;;;;11.68;66.76;101792.16;4980683;28;45738;-59
2023/04/18 04:58:17;;;;;;;;;68.75;55.00;;;;;11.73;66.69;101800.97;4962841;28;47482;-59
2023/04/18 05:00:42;;;;;;;;;72.25;56.25;;;;;11.71;66.73;101789.44;4980600;28;45423;-59
2023/04/18 05:03:09;;;;;;;;;63.75;51.50;;;;;11.74;66.58;101793.81;4980572;28;45489;-59
2023/04/18 05:05:35;;;;;;;;;71.25;57.00;;;;;11.67;66.83;101782.38;4979238;28;45471;-59
2023/04/18 05:08:00;;;;;;;;;69.75;54.00;;;;;11.62;66.71;101768.22;4980474;28;46001;-59
2023/04/18 05:10:26;;;;;;;;;70.50;55.25;;;;;11.67;67.09;101787.72;4977389;28;45512;-59
2023/04/18 05:12:51;;;;;;;;;69.50;54.25;;;;;11.69;66.77;101791.25;4970167;28;45326;-59
2023/04/18 05:15:17;;;;;;;;;66.50;53.00;;;;;11.69;66.69;101785.88;4980116;28;45462;-59
2023/04/18 05:17:42;;;;;;;;;71.50;56.25;;;;;11.55;66.91;101771.94;4980516;28;45428;-59
2023/04/18 05:20:08;;;;;;;;;69.00;53.25;;;;;11.65;66.98;101797.56;4978973;28;45365;-59
2023/04/18 05:22:34;;;;;;;;;74.25;56.00;;;;;11.50;66.95;101774.69;4980548;28;45330;-59
2023/04/18 05:25:00;;;;;;;;;70.00;56.00;;;;;11.56;67.07;101789.72;4980221;28;45345;-58
2023/04/18 05:27:25;;;;;;;;;65.75;51.00;;;;;11.59;67.30;101797.69;4980232;28;45522;-58
2023/04/18 05:29:51;;;;;;;;;68.75;54.50;;;;;11.52;67.37;101788.03;4995158;28;45635;-59
2023/04/18 05:32:16;;;;;;;;;71.00;55.50;;;;;11.60;67.37;101792.31;4977250;28;45648;-59
2023/04/18 05:34:42;;;;;;;;;70.75;56.00;;;;;11.58;67.20;101790.59;4978100;28;45503;-59
2023/04/18 05:37:07;;;;;;;;;69.25;55.50;;;;;11.64;67.11;101803.81;4985779;28;46221;-58
2023/04/18 05:39:33;;;;;;;;;68.25;55.00;;;;;11.63;67.07;101799.41;4978224;28;45460;-59
2023/04/18 05:41:58;;;;;;;;;68.25;51.25;;;;;11.52;66.94;101783.56;4979176;28;45565;-59
2023/04/18 05:44:24;;;;;;;;;64.25;52.75;;;;;11.53;66.87;101790.69;4979917;28;45519;-62
2023/04/18 05:46:52;;;;;;;;;68.25;53.75;;;;;11.38;67.29;101773.13;4977520;28;47271;-62
2023/04/18 05:49:18;;;;;;;;;71.25;55.50;;;;;11.44;67.25;101786.41;4979050;28;45307;-62
2023/04/18 05:51:43;;;;;;;;;69.50;54.50;;;;;11.34;67.51;101782.09;4976714;28;45374;-62
2023/04/18 05:54:09;;;;;;;;;68.25;54.25;;;;;11.37;67.40;101784.72;4979663;28;45409;-62
2023/04/18 05:56:34;;;;;;;;;76.00;59.00;;;;;11.30;67.33;101773.28;4977270;28;45994;-62
2023/04/18 05:59:00;;;;;;;;;67.50;54.50;;;;;11.37;67.82;101790.06;4978488;28;45500;-62
2023/04/18 06:01:26;;;;;;;;;72.75;57.00;;;;;11.46;67.86;101805.97;4979851;28;45458;-62
2023/04/18 06:03:52;;;;;;;;;73.75;58.75;;;;;11.22;67.37;101771.66;4978310;28;45454;-62
2023/04/18 06:06:18;;;;;;;;;69.25;54.75;;;;;11.44;67.86;101799.78;4978264;28;47305;-62
2023/04/18 06:08:43;;;;;;;;;72.75;56.75;;;;;11.26;67.97;101776.94;4978083;28;45552;-62
2023/04/18 06:11:08;;;;;;;;;70.00;54.25;;;;;10.98;67.95;101739.16;4979652;28;45512;-62
2023/04/18 06:13:35;;;;;;;;;71.00;53.25;;;;;11.13;68.24;101764.69;4978913;28;45414;-62
2023/04/18 06:16:00;;;;;;;;;71.00;54.50;;;;;11.37;67.98;101805.25;4977561;28;46139;-62
2023/04/18 06:18:26;;;;;;;;;70.25;55.50;;;;;11.20;68.04;101779.72;4986273;28;45487;-62
2023/04/18 06:20:51;;;;;;;;;66.75;54.50;;;;;11.05;67.84;101762.16;4976533;28;45354;-63
2023/04/18 06:23:17;;;;;;;;;68.25;53.25;;;;;11.23;67.87;101785.00;4978374;28;45475;-62
2023/04/18 06:25:42;;;;;;;;;69.25;53.75;;;;;11.44;67.82;101807.78;4979407;28;45492;-62
2023/04/18 06:28:08;;;;;;;;;70.25;57.25;;;;;11.50;67.39;101809.44;4976526;28;45323;-62
2023/04/18 06:30:34;;;;;;;;;69.50;56.00;;;;;11.22;68.12;101769.88;4979693;28;45419;-62
2023/04/18 06:32:59;;;;;;;;;66.00;53.00;;;;;11.18;68.11;101767.31;4978098;28;45560;-62
2023/04/18 06:35:25;;;;;;;;;68.50;53.50;;;;;11.43;68.23;101807.81;4977038;28;47253;-62
2023/04/18 06:37:51;;;;;;;;;68.00;54.00;;;;;11.24;68.11;101777.84;4977248;28;45408;-62
2023/04/18 06:40:16;;;;;;;;;67.25;49.75;;;;;11.33;68.42;101783.03;4979509;28;45583;-62
2023/04/18 06:42:42;;;;;;;;;69.25;53.25;;;;;11.49;67.75;101813.94;4973164;28;45508;-59
2023/04/18 06:45:10;;;;;;;;;64.50;51.75;;;;;11.26;67.80;101778.69;4973023;28;45967;-59
2023/04/18 06:47:36;;;;;;;;;70.75;56.00;;;;;11.30;67.74;101781.28;4979506;28;45321;-60
2023/04/18 06:50:02;;;;;;;;;69.75;55.25;;;;;11.47;68.26;101807.69;4976057;28;45998;-59
2023/04/18 06:52:28;;;;;;;;;70.50;54.50;;;;;11.45;68.12;101801.50;4978758;28;45386;-59
2023/04/18 06:54:53;;;;;;;;;76.25;58.25;;;;;11.19;68.36;101761.03;4981103;28;46158;-60
2023/04/18 06:57:19;;;;;;;;;69.00;53.75;;;;;11.34;68.12;101784.78;4980850;28;45362;-60
2023/04/18 06:59:44;;;;;;;;;60.75;50.25;;;;;11.46;68.22;101805.06;4982501;28;45520;-60
2023/04/18 07:02:10;;;;;;;;;66.25;52.00;;;;;11.46;68.16;101802.38;4982685;28;45369;-60
2023/04/18 07:04:35;;;;;;;;;62.75;51.75;;;;;11.26;68.38;101768.91;4986540;28;46187;-60
2023/04/18 07:07:02;;;;;;;;;65.75;52.75;;;;;11.32;68.16;101775.91;4980308;28;45577;-60
2023/04/18 07:09:28;;;;;;;;;62.00;50.50;;;;;11.42;68.33;101790.88;4981635;28;45548;-60
2023/04/18 07:11:53;;;;;;;;;65.25;51.75;;;;;11.27;67.81;101769.78;4964643;28;45463;-59
2023/04/18 07:14:21;;;;;;;;;68.25;51.75;;;;;11.35;67.97;101786.56;4977230;28;46381;-59
2023/04/18 07:16:47;;;;;;;;;63.75;51.00;;;;;11.32;67.98;101779.47;4980546;28;45476;-59
2023/04/18 07:19:12;;;;;;;;;68.75;52.75;;;;;11.23;68.30;101768.09;4980845;28;45671;-59
2023/04/18 07:21:39;;;;;;;;;69.50;54.25;;;;;11.52;68.62;101814.78;4974456;28;45855;-59
2023/04/18 07:24:05;;;;;;;;;69.00;53.75;;;;;11.30;68.33;101783.97;4978247;28;47271;-59
2023/04/18 07:26:31;;;;;;;;;71.00;56.50;;;;;11.46;68.31;101797.03;4982051;28;45687;-59
2023/04/18 07:28:56;;;;;;;;;66.25;51.50;;;;;11.53;68.25;101806.72;4979505;28;45941;-59
2023/04/18 07:31:21;;;;;;;;;69.00;51.50;;;;;11.60;68.27;101815.50;4983572;28;45574;-59
2023/04/18 07:33:47;;;;;;;;;73.75;56.00;;;;;11.57;68.34;101799.53;4964152;28;46262;-59
2023/04/18 07:36:12;;;;;;;;;67.25;54.25;;;;;11.40;68.35;101771.31;4964290;28;50111;-59
2023/04/18 07:38:38;;;;;;;;;64.75;51.75;;;;;11.38;68.11;101772.28;4977696;28;45500;-59
2023/04/18 07:41:03;;;;;;;;;64.25;49.25;;;;;11.55;68.33;101806.69;4971597;28;45771;-59
2023/04/18 07:43:29;;;;;;;;;72.75;56.25;;;;;11.52;68.43;101804.06;4978288;28;45368;-59
2023/04/18 07:45:54;;;;;;;;;67.50;54.00;;;;;11.47;68.01;101805.03;4981182;28;45519;-59
2023/04/18 07:48:24;;;;;;;;;68.50;53.75;;;;;11.36;68.13;101793.69;4979497;28;45420;-59
2023/04/18 07:50:50;;;;;;;;;72.50;57.00;;;;;11.23;68.19;101774.31;4975056;28;45496;-59
2023/04/18 07:53:16;;;;;;;;;74.25;58.00;;;;;11.38;68.49;101797.19;4970875;28;45618;-59
2023/04/18 07:55:42;;;;;;;;;73.00;56.50;;;;;11.38;67.85;101804.34;4956495;28;45352;-59
2023/04/18 07:58:08;;;;;;;;;69.75;54.50;;;;;11.38;68.32;101801.69;4974422;28;45436;-59
2023/04/18 08:00:35;;;;;;;;;70.50;55.00;;;;;11.33;68.35;101780.38;4979387;28;45684;-59
2023/04/18 08:03:01;;;;;;;;;69.00;55.25;;;;;11.36;68.26;101779.41;4980970;28;45499;-59
2023/04/18 08:05:26;;;;;;;;;70.50;54.75;;;;;11.45;68.55;101777.44;4978558;28;45253;-59
2023/04/18 08:07:52;;;;;;;;;70.25;54.75;;;;;11.54;68.52;101787.06;4978771;28;45523;-59
2023/04/18 08:10:17;;;;;;;;;69.75;54.25;;;;;11.56;68.10;101779.03;4979300;28;45685;-59
2023/04/18 08:12:42;;;;;;;;;67.75;56.00;;;;;11.60;68.38;101780.75;4977253;28;46666;-59
2023/04/18 08:15:08;;;;;;;;;73.75;58.25;;;;;11.66;67.86;101783.28;4959860;28;45720;-59
2023/04/18 08:17:33;;;;;;;;;65.00;52.00;;;;;11.68;68.22;101786.81;4976181;28;45492;-59
2023/04/18 08:19:59;;;;;;;;;71.25;56.00;;;;;11.67;67.54;101777.91;4977180;28;45467;-59
2023/04/18 08:22:25;;;;;;;;;70.50;56.00;;;;;11.76;68.06;101783.97;4976191;28;46138;-59
2023/04/18 08:24:50;;;;;;;;;68.50;53.50;;;;;11.81;67.42;101785.66;4978369;28;45784;-59
2023/04/18 08:27:16;;;;;;;;;66.75;54.00;;;;;11.82;67.72;101771.34;4959840;28;45609;-59
2023/04/18 08:29:41;;;;;;;;;64.75;51.50;;;;;11.93;67.42;101776.53;4976219;28;45558;-59
2023/04/18 08:32:06;;;;;;;;;60.00;49.00;;;;;11.93;67.06;101760.47;4961557;28;47069;-59
2023/04/18 08:34:35;;;;;;;;;65.00;51.75;;;;;12.04;67.59;101769.16;4977126;28;45452;-59
2023/04/18 08:37:00;;;;;;;;;72.00;54.50;;;;;12.08;66.99;101764.59;4980335;28;45369;-59
2023/04/18 08:39:26;;;;;;;;;68.50;53.00;;;;;12.10;67.02;101754.72;4971978;28;45512;-60
2023/04/18 08:41:58;;;;;;;;;68.00;53.25;;;;;12.23;66.81;101772.28;4966531;28;47325;-59
2023/04/18 08:44:26;;;;;;;;;63.00;52.00;;;;;12.29;66.70;101773.06;4977568;28;45917;-61
2023/04/18 08:46:52;;;;;;;;;65.50;53.50;;;;;12.31;66.54;101774.78;4980172;28;46356;-59
2023/04/18 08:49:20;;;;;;;;;65.00;51.00;;;;;12.37;65.96;101776.44;4975679;28;45621;-58
2023/04/18 08:51:48;;;;;;;;;63.50;49.75;;;;;12.40;65.95;101765.66;4959978;28;47267;-58
2023/04/18 08:54:14;;;;;;;;;67.25;51.75;;;;;12.36;65.97;101759.50;4980464;28;46317;-58
2023/04/18 08:56:41;;;;;;;;;67.50;54.00;;;;;12.48;65.74;101762.78;4959234;28;45461;-58
2023/04/18 08:59:06;;;;;;;;;67.75;52.00;;;;;12.49;65.80;101759.19;4981502;28;45644;-58
2023/04/18 09:02:00;;;;;;;;;66.25;51.75;;;;;12.59;66.28;101764.28;4981876;28;46314;-58
2023/04/18 09:04:38;;;;;;;;;69.25;53.75;;;;;12.65;65.18;101760.59;4993799;28;45557;-58
2023/04/18 09:07:08;;;;;;;;;62.00;49.50;;;;;12.63;65.56;101748.13;4979107;28;45734;-58
2023/04/18 09:09:49;;;;;;;;;66.50;51.00;;;;;12.73;65.56;101757.69;4977141;28;45709;-58
2023/04/18 09:12:24;;;;;;;;;69.50;52.50;;;;;12.77;65.23;101748.69;4975363;28;46367;-58
2023/04/18 09:14:52;;;;;;;;;60.50;48.25;;;;;12.83;65.79;101753.88;4976034;28;45814;-58
2023/04/18 09:17:30;;;;;;;;;61.25;50.50;;;;;12.92;65.06;101753.63;4977638;28;45614;-58
2023/04/18 09:19:57;;;;;;;;;67.50;51.75;;;;;12.95;64.82;101750.00;4977652;28;45572;-58
2023/04/18 09:22:22;;;;;;;;;65.50;51.25;;;;;12.99;64.80;101740.94;4977329;28;45543;-58
2023/04/18 09:24:56;;;;;;;;;64.75;52.50;;;;;13.04;64.31;101746.19;4976970;28;45808;-58
2023/04/18 09:27:22;;;;;;;;;67.00;50.50;;;;;13.09;63.96;101741.59;4975481;28;45428;-58
2023/04/18 09:29:53;;;;;;;;;59.50;48.25;;;;;13.11;64.26;101739.75;4977548;28;45628;-58
2023/04/18 09:32:24;;;;;;;;;63.75;48.50;;;;;13.13;63.75;101733.44;4956838;28;47742;-58
2023/04/18 09:34:58;;;;;;;;;61.50;50.75;;;;;13.19;63.19;101729.69;4976794;28;46454;-58
2023/04/18 09:37:24;;;;;;;;;62.00;50.50;;;;;13.19;63.33;101729.69;4977231;28;45707;-58
2023/04/18 09:39:50;;;;;;;;;62.25;49.75;;;;;13.27;62.87;101734.84;4983117;28;45393;-58
2023/04/18 09:42:17;;;;;;;;;62.75;49.75;;;;;13.27;62.71;101729.50;4977276;28;45407;-58
2023/04/18 09:44:59;;;;;;;;;51.00;42.00;;;;;13.31;62.97;101717.75;4981465;28;45498;-58
2023/04/18 09:47:26;;;;;;;;;54.00;42.75;;;;;13.36;62.08;101726.56;4981863;28;45526;-59
2023/04/18 09:49:52;;;;;;;;;63.00;49.75;;;;;13.41;62.35;101721.94;4977846;28;45427;-58
2023/04/18 09:52:19;;;;;;;;;61.00;48.50;;;;;13.46;62.41;101709.28;4983766;28;46307;-59
2023/04/18 09:54:47;;;;;;;;;56.25;44.50;;;;;13.49;62.13;101716.38;4985171;28;45803;-58
2023/04/18 09:57:13;;;;;;;;;58.25;47.50;;;;;13.58;62.11;101702.72;4983053;28;45769;-60
2023/04/18 09:59:48;;;;;;;;;57.50;46.25;;;;;13.60;62.31;101703.53;4977069;28;45380;-59
2023/04/18 10:02:20;;;;;;;;;58.50;47.00;;;;;13.68;61.75;101704.19;4978482;28;46362;-60
2023/04/18 10:04:48;;;;;;;;;62.75;50.00;;;;;13.76;61.37;101697.69;4967736;28;45323;-59
2023/04/18 10:07:15;;;;;;;;;59.75;47.50;;;;;13.79;60.76;101693.13;4958196;28;47396;-60
2023/04/18 10:09:44;;;;;;;;;50.50;42.50;;;;;13.78;59.94;101691.38;4976835;28;45727;-59
2023/04/18 10:12:13;;;;;;;;;58.75;47.25;;;;;13.86;60.28;101705.41;4977237;28;46337;-59
2023/04/18 10:14:41;;;;;;;;;60.75;49.00;;;;;13.80;60.36;101672.53;4977016;28;45546;-59
2023/04/18 10:17:08;;;;;;;;;58.75;47.25;;;;;13.96;60.17;101684.53;4977332;28;45655;-59
2023/04/18 10:19:33;;;;;;;;;54.50;45.75;;;;;14.03;59.83;101682.53;4975059;28;45535;-60
2023/04/18 10:22:00;;;;;;;;;57.00;46.75;;;;;14.06;59.88;101677.06;4971826;28;45574;-59
2023/04/18 10:24:44;;;;;;;;;58.75;47.00;;;;;14.15;59.88;101676.78;4975557;28;45531;-60
2023/04/18 10:27:09;;;;;;;;;56.25;47.00;;;;;14.21;59.07;101678.38;4972516;28;45631;-60
2023/04/18 10:29:51;;;;;;;;;55.25;45.00;;;;;14.22;58.61;101674.78;4960439;28;45800;-59
2023/04/18 10:32:20;;;;;;;;;58.00;46.25;;;;;14.27;58.11;101672.81;4978292;28;46211;-59
2023/04/18 10:34:46;;;;;;;;;57.50;47.00;;;;;14.27;57.96;101662.94;4961184;28;45405;-60
2023/04/18 10:37:12;;;;;;;;;54.75;45.00;;;;;14.24;58.40;101646.94;4976078;28;45383;-60
2023/04/18 10:39:52;;;;;;;;;55.75;45.50;;;;;14.35;58.47;101665.41;4972632;28;45278;-60
2023/04/18 10:42:18;;;;;;;;;59.75;46.75;;;;;14.34;58.70;101644.81;4975461;28;46158;-60
2023/04/18 10:45:30;;;;;;;;;57.25;46.00;;;;;14.51;58.50;101660.38;4978041;28;45875;-60
2023/04/18 10:48:21;;;;;;;;;54.75;45.00;;;;;14.60;58.03;101643.97;4971064;28;45472;-59
2023/04/18 10:51:15;;;;;;;;;57.50;46.25;;;;;14.67;57.74;101641.94;4962711;28;45503;-60
2023/04/18 10:53:56;;;;;;;;;53.00;44.50;;;;;14.69;57.44;101634.72;4966375;28;46518;-60
2023/04/18 10:56:21;;;;;;;;;52.25;43.25;;;;;14.70;57.18;101627.50;4965764;28;45775;-60
2023/04/18 10:58:51;;;;;;;;;57.25;45.75;;;;;14.63;57.08;101619.69;4960115;28;45773;-60
2023/04/18 11:01:28;;;;;;;;;37.50;32.75;;;;;14.84;56.75;101637.78;4990294;28;45356;-60
2023/04/18 11:03:54;;;;;;;;;50.75;41.50;;;;;14.88;55.63;101634.03;4981354;28;46466;-60
2023/04/18 11:06:21;;;;;;;;;47.25;39.50;;;;;14.91;54.47;101650.94;4977589;28;47167;-60
2023/04/18 11:08:47;;;;;;;;;35.00;32.50;;;;;14.88;54.39;101631.34;4976774;28;45720;-60